createdAt,value
2019-02-04T00:00:14.524Z,0
2019-02-04T00:01:14.499Z,0
2019-02-04T00:02:14.345Z,0
2019-02-04T00:03:13.970Z,0
2019-02-04T00:04:14.458Z,0
2019-02-04T00:05:14.178Z,0
2019-02-04T00:06:14.409Z,0
2019-02-04T00:07:16.435Z,0
2019-02-04T00:08:14.384Z,0
2019-02-04T00:09:14.427Z,0
2019-02-04T00:10:14.328Z,0
2019-02-04T00:11:14.306Z,0
2019-02-04T00:12:14.036Z,0
2019-02-04T00:13:14.272Z,0
2019-02-04T00:14:14.243Z,0
2019-02-04T00:15:15.059Z,0
2019-02-04T00:16:14.214Z,0
2019-02-04T00:17:14.177Z,0
2019-02-04T00:18:14.172Z,0
2019-02-04T00:19:13.909Z,0
2019-02-04T00:20:14.127Z,0
2019-02-04T00:21:13.372Z,0
2019-02-04T00:22:14.140Z,0
2019-02-04T00:23:14.544Z,0
2019-02-04T00:24:14.431Z,0
2019-02-04T00:25:14.021Z,0
2019-02-04T00:26:14.023Z,0
2019-02-04T00:27:13.974Z,0
2019-02-04T00:28:13.966Z,0
2019-02-04T00:29:13.938Z,0
2019-02-04T00:30:13.684Z,0
2019-02-04T00:31:15.333Z,0
2019-02-04T00:32:13.885Z,0
2019-02-04T00:33:13.610Z,0
2019-02-04T00:34:13.603Z,0
2019-02-04T00:35:13.581Z,0
2019-02-04T00:36:13.540Z,0
2019-02-04T00:37:13.788Z,0
2019-02-04T00:38:13.928Z,0
2019-02-04T00:39:14.427Z,0
2019-02-04T00:40:13.520Z,0
2019-02-04T00:41:13.464Z,0
2019-02-04T00:42:13.682Z,0
2019-02-04T00:43:13.678Z,0
2019-02-04T00:44:13.649Z,0
2019-02-04T00:45:13.367Z,0
2019-02-04T00:46:19.618Z,0
2019-02-04T00:47:13.880Z,0
2019-02-04T00:48:13.549Z,0
2019-02-04T00:49:13.538Z,0
2019-02-04T00:50:13.512Z,0
2019-02-04T00:51:13.491Z,0
2019-02-04T00:52:13.470Z,0
2019-02-04T00:53:13.445Z,0
2019-02-04T00:54:13.710Z,0
2019-02-04T00:55:13.479Z,0
2019-02-04T00:56:13.386Z,0
2019-02-04T00:57:13.367Z,0
2019-02-04T00:58:13.099Z,0
2019-02-04T00:59:13.332Z,0
2019-02-04T01:00:13.306Z,0
2019-02-04T01:01:12.800Z,0
2019-02-04T01:02:13.596Z,0
2019-02-04T01:03:13.261Z,0
2019-02-04T01:04:13.231Z,0
2019-02-04T01:05:13.217Z,0
2019-02-04T01:06:13.200Z,0
2019-02-04T01:07:13.201Z,0
2019-02-04T01:08:13.149Z,0
2019-02-04T01:09:14.939Z,0
2019-02-04T01:10:13.647Z,0
2019-02-04T01:11:13.099Z,0
2019-02-04T01:12:13.071Z,0
2019-02-04T01:13:12.798Z,0
2019-02-04T01:14:13.078Z,0
2019-02-04T01:15:13.008Z,0
2019-02-04T01:16:12.836Z,0
2019-02-04T01:17:13.404Z,0
2019-02-04T01:18:13.827Z,0
2019-02-04T01:19:12.942Z,0
2019-02-04T01:20:12.911Z,0
2019-02-04T01:21:12.635Z,0
2019-02-04T01:22:12.878Z,0
2019-02-04T01:23:12.615Z,0
2019-02-04T01:24:12.831Z,0
2019-02-04T01:25:12.603Z,0
2019-02-04T01:26:13.177Z,0
2019-02-04T01:27:12.770Z,0
2019-02-04T01:28:12.749Z,0
2019-02-04T01:29:12.732Z,0
2019-02-04T01:30:12.224Z,0
2019-02-04T01:31:12.689Z,0
2019-02-04T01:32:12.676Z,0
2019-02-04T01:33:12.670Z,0
2019-02-04T01:34:13.366Z,0
2019-02-04T01:35:12.628Z,0
2019-02-04T01:36:12.596Z,0
2019-02-04T01:37:12.321Z,0
2019-02-04T01:38:12.056Z,0
2019-02-04T01:39:12.526Z,0
2019-02-04T01:40:12.513Z,0
2019-02-04T01:41:12.587Z,0
2019-02-04T01:42:13.421Z,0
2019-02-04T01:43:12.203Z,0
2019-02-04T01:44:12.436Z,0
2019-02-04T01:45:12.414Z,0
2019-02-04T01:46:12.402Z,0
2019-02-04T01:47:21.614Z,0
2019-02-04T01:48:12.344Z,0
2019-02-04T01:49:12.346Z,0
2019-02-04T01:50:12.804Z,0
2019-02-04T01:51:12.296Z,0
2019-02-04T01:52:12.273Z,0
2019-02-04T01:53:12.259Z,0
2019-02-04T01:54:12.268Z,0
2019-02-04T01:55:12.204Z,0
2019-02-04T01:56:12.195Z,0
2019-02-04T01:57:12.219Z,0
2019-02-04T01:58:12.801Z,0
2019-02-04T01:59:12.139Z,0
2019-02-04T02:00:12.124Z,0
2019-02-04T02:01:12.086Z,0
2019-02-04T02:02:12.077Z,0
2019-02-04T02:03:12.057Z,0
2019-02-04T02:04:12.037Z,0
2019-02-04T02:05:12.611Z,0
2019-02-04T02:06:12.286Z,0
2019-02-04T02:07:11.711Z,0
2019-02-04T02:08:11.715Z,0
2019-02-04T02:09:11.935Z,0
2019-02-04T02:10:11.723Z,0
2019-02-04T02:11:11.992Z,0
2019-02-04T02:12:11.872Z,0
2019-02-04T02:13:12.284Z,0
2019-02-04T02:14:12.121Z,0
2019-02-04T02:15:11.810Z,0
2019-02-04T02:16:11.786Z,0
2019-02-04T02:17:11.879Z,0
2019-02-04T02:18:11.754Z,0
2019-02-04T02:19:11.730Z,0
2019-02-04T02:20:11.715Z,0
2019-02-04T02:21:12.296Z,0
2019-02-04T02:22:12.050Z,0
2019-02-04T02:23:11.262Z,0
2019-02-04T02:24:11.635Z,0
2019-02-04T02:25:11.612Z,0
2019-02-04T02:26:11.621Z,0
2019-02-04T02:27:11.324Z,0
2019-02-04T02:28:11.555Z,0
2019-02-04T02:29:11.967Z,0
2019-02-04T02:30:11.861Z,0
2019-02-04T02:31:11.276Z,0
2019-02-04T02:32:11.538Z,0
2019-02-04T02:33:11.480Z,0
2019-02-04T02:34:11.287Z,0
2019-02-04T02:35:11.178Z,0
2019-02-04T02:36:11.145Z,0
2019-02-04T02:37:12.277Z,0
2019-02-04T02:38:11.382Z,0
2019-02-04T02:39:11.100Z,0
2019-02-04T02:40:11.476Z,0
2019-02-04T02:41:11.250Z,0
2019-02-04T02:42:11.316Z,0
2019-02-04T02:43:14.183Z,0
2019-02-04T02:44:11.255Z,0
2019-02-04T02:45:11.986Z,0
2019-02-04T02:46:11.194Z,0
2019-02-04T02:47:11.170Z,0
2019-02-04T02:48:11.194Z,0
2019-02-04T02:49:11.138Z,0
2019-02-04T02:50:11.115Z,0
2019-02-04T02:51:10.841Z,0
2019-02-04T02:52:11.410Z,0
2019-02-04T02:53:11.167Z,0
2019-02-04T02:54:11.048Z,0
2019-02-04T02:55:10.782Z,0
2019-02-04T02:56:11.008Z,0
2019-02-04T02:57:10.733Z,0
2019-02-04T02:58:10.962Z,0
2019-02-04T02:59:10.991Z,0
2019-02-04T03:00:11.635Z,0
2019-02-04T03:01:11.248Z,0
2019-02-04T03:02:10.640Z,0
2019-02-04T03:03:10.858Z,0
2019-02-04T03:04:10.848Z,0
2019-02-04T03:05:10.819Z,0
2019-02-04T03:06:10.797Z,0
2019-02-04T03:07:10.533Z,0
2019-02-04T03:08:11.398Z,0
2019-02-04T03:09:10.621Z,0
2019-02-04T03:10:10.716Z,0
2019-02-04T03:11:10.810Z,0
2019-02-04T03:12:10.677Z,0
2019-02-04T03:13:10.656Z,0
2019-02-04T03:14:10.630Z,0
2019-02-04T03:15:10.883Z,0
2019-02-04T03:16:11.467Z,0
2019-02-04T03:17:10.581Z,0
2019-02-04T03:18:10.556Z,0
2019-02-04T03:19:10.537Z,0
2019-02-04T03:20:10.520Z,0
2019-02-04T03:21:10.506Z,0
2019-02-04T03:22:10.480Z,0
2019-02-04T03:23:10.540Z,0
2019-02-04T03:24:11.094Z,0
2019-02-04T03:25:10.429Z,0
2019-02-04T03:26:10.405Z,0
2019-02-04T03:27:10.380Z,0
2019-02-04T03:28:10.434Z,0
2019-02-04T03:29:10.082Z,0
2019-02-04T03:30:09.947Z,0
2019-02-04T03:31:10.156Z,0
2019-02-04T03:32:10.905Z,0
2019-02-04T03:33:10.139Z,0
2019-02-04T03:34:10.243Z,0
2019-02-04T03:35:10.350Z,0
2019-02-04T03:36:09.941Z,0
2019-02-04T03:37:10.193Z,0
2019-02-04T03:38:10.160Z,0
2019-02-04T03:39:10.298Z,0
2019-02-04T03:40:10.895Z,0
2019-02-04T03:41:10.100Z,0
2019-02-04T03:42:10.182Z,0
2019-02-04T03:43:10.065Z,0
2019-02-04T03:44:09.790Z,0
2019-02-04T03:45:10.116Z,0
2019-02-04T03:46:09.999Z,0
2019-02-04T03:47:09.763Z,0
2019-02-04T03:48:18.470Z,0
2019-02-04T03:49:09.441Z,0
2019-02-04T03:50:10.045Z,0
2019-02-04T03:51:09.907Z,0
2019-02-04T03:52:09.872Z,0
2019-02-04T03:53:09.841Z,0
2019-02-04T03:54:09.846Z,0
2019-02-04T03:55:09.989Z,0
2019-02-04T03:56:10.126Z,0
2019-02-04T03:57:09.535Z,0
2019-02-04T03:58:09.869Z,0
2019-02-04T03:59:09.477Z,0
2019-02-04T04:00:09.745Z,0
2019-02-04T04:01:09.698Z,0
2019-02-04T04:02:09.678Z,0
2019-02-04T04:03:09.926Z,0
2019-02-04T04:04:10.231Z,0
2019-02-04T04:05:09.446Z,0
2019-02-04T04:06:09.596Z,0
2019-02-04T04:07:09.324Z,0
2019-02-04T04:08:09.595Z,0
2019-02-04T04:09:09.539Z,0
2019-02-04T04:10:09.524Z,0
2019-02-04T04:11:09.687Z,0
2019-02-04T04:12:10.024Z,0
2019-02-04T04:13:09.224Z,0
2019-02-04T04:14:09.450Z,0
2019-02-04T04:15:09.160Z,0
2019-02-04T04:16:09.398Z,0
2019-02-04T04:17:09.130Z,0
2019-02-04T04:18:19.859Z,0
2019-02-04T04:19:09.522Z,0
2019-02-04T04:20:09.881Z,0
2019-02-04T04:21:09.287Z,0
2019-02-04T04:22:09.012Z,0
2019-02-04T04:23:09.242Z,0
2019-02-04T04:24:09.234Z,0
2019-02-04T04:25:09.196Z,0
2019-02-04T04:26:08.703Z,0
2019-02-04T04:27:09.769Z,0
2019-02-04T04:28:09.571Z,0
2019-02-04T04:29:08.881Z,0
2019-02-04T04:30:09.108Z,0
2019-02-04T04:31:08.597Z,0
2019-02-04T04:32:09.076Z,0
2019-02-04T04:33:09.046Z,0
2019-02-04T04:34:09.022Z,0
2019-02-04T04:35:09.797Z,0
2019-02-04T04:36:08.989Z,0
2019-02-04T04:37:08.972Z,0
2019-02-04T04:38:09.023Z,0
2019-02-04T04:39:08.944Z,0
2019-02-04T04:40:08.666Z,0
2019-02-04T04:41:08.884Z,0
2019-02-04T04:42:08.872Z,0
2019-02-04T04:43:09.359Z,0
2019-02-04T04:44:08.854Z,0
2019-02-04T04:45:08.821Z,0
2019-02-04T04:46:08.914Z,0
2019-02-04T04:47:08.773Z,0
2019-02-04T04:48:08.749Z,0
2019-02-04T04:49:08.727Z,0
2019-02-04T04:50:08.206Z,0
2019-02-04T04:51:09.450Z,0
2019-02-04T04:52:08.664Z,0
2019-02-04T04:53:08.663Z,0
2019-02-04T04:54:08.627Z,0
2019-02-04T04:55:08.769Z,0
2019-02-04T04:56:08.615Z,0
2019-02-04T04:57:08.317Z,0
2019-02-04T04:58:08.486Z,0
2019-02-04T04:59:09.052Z,0
2019-02-04T05:00:08.507Z,0
2019-02-04T05:01:08.490Z,0
2019-02-04T05:02:08.234Z,0
2019-02-04T05:03:08.449Z,0
2019-02-04T05:04:08.434Z,0
2019-02-04T05:05:08.413Z,0
2019-02-04T05:06:08.848Z,0
2019-02-04T05:07:10.790Z,0
2019-02-04T05:08:08.112Z,0
2019-02-04T05:09:08.339Z,0
2019-02-04T05:10:08.304Z,0
2019-02-04T05:11:07.801Z,0
2019-02-04T05:12:08.271Z,0
2019-02-04T05:13:08.246Z,0
2019-02-04T05:14:08.663Z,0
2019-02-04T05:15:08.349Z,0
2019-02-04T05:16:08.188Z,0
2019-02-04T05:17:07.916Z,0
2019-02-04T05:18:08.147Z,0
2019-02-04T05:19:08.133Z,0
2019-02-04T05:20:08.255Z,0
2019-02-04T05:21:08.080Z,0
2019-02-04T05:22:08.577Z,0
2019-02-04T05:23:08.399Z,0
2019-02-04T05:24:07.778Z,0
2019-02-04T05:25:07.771Z,0
2019-02-04T05:26:07.742Z,0
2019-02-04T05:27:07.966Z,0
2019-02-04T05:28:07.950Z,0
2019-02-04T05:29:07.922Z,0
2019-02-04T05:30:08.574Z,0
2019-02-04T05:31:08.191Z,0
2019-02-04T05:32:07.979Z,0
2019-02-04T05:33:07.841Z,0
2019-02-04T05:34:07.819Z,0
2019-02-04T05:35:07.833Z,0
2019-02-04T05:36:07.793Z,0
2019-02-04T05:37:07.757Z,0
2019-02-04T05:38:08.407Z,0
2019-02-04T05:39:07.833Z,0
2019-02-04T05:40:07.696Z,0
2019-02-04T05:41:07.686Z,0
2019-02-04T05:42:07.682Z,0
2019-02-04T05:43:07.660Z,0
2019-02-04T05:44:07.655Z,0
2019-02-04T05:45:07.604Z,0
2019-02-04T05:46:08.126Z,0
2019-02-04T05:47:07.558Z,0
2019-02-04T05:48:07.543Z,0
2019-02-04T05:49:07.511Z,0
2019-02-04T05:50:07.505Z,0
2019-02-04T05:51:07.232Z,0
2019-02-04T05:52:07.653Z,0
2019-02-04T05:53:07.434Z,0
2019-02-04T05:54:08.298Z,0
2019-02-04T05:55:07.209Z,0
2019-02-04T05:56:07.390Z,0
2019-02-04T05:57:07.353Z,0
2019-02-04T05:58:07.341Z,0
2019-02-04T05:59:07.346Z,0
2019-02-04T06:00:07.449Z,0
2019-02-04T06:01:07.178Z,0
2019-02-04T06:02:09.352Z,0
2019-02-04T06:03:07.235Z,0
2019-02-04T06:04:07.222Z,0
2019-02-04T06:05:06.938Z,0
2019-02-04T06:06:07.169Z,0
2019-02-04T06:07:07.162Z,0
2019-02-04T06:08:07.141Z,0
2019-02-04T06:09:07.551Z,0
2019-02-04T06:10:07.187Z,0
2019-02-04T06:11:07.084Z,0
2019-02-04T06:12:07.055Z,0
2019-02-04T06:13:06.784Z,0
2019-02-04T06:14:06.891Z,0
2019-02-04T06:15:06.735Z,0
2019-02-04T06:16:07.058Z,0
2019-02-04T06:17:06.973Z,0
2019-02-04T06:18:07.315Z,0
2019-02-04T06:19:10.274Z,0
2019-02-04T06:20:07.744Z,0
2019-02-04T06:21:06.992Z,0
2019-02-04T06:22:06.858Z,0
2019-02-04T06:23:06.824Z,0
2019-02-04T06:24:06.811Z,0
2019-02-04T06:25:07.589Z,0
2019-02-04T06:26:06.801Z,0
2019-02-04T06:27:06.744Z,0
2019-02-04T06:28:06.726Z,0
2019-02-04T06:29:06.707Z,0
2019-02-04T06:30:06.505Z,0
2019-02-04T06:31:06.400Z,0
2019-02-04T06:32:06.621Z,0
2019-02-04T06:33:07.530Z,0
2019-02-04T06:34:06.466Z,0
2019-02-04T06:35:06.630Z,0
2019-02-04T06:36:06.556Z,0
2019-02-04T06:37:06.281Z,5
2019-02-04T06:38:06.518Z,5
2019-02-04T06:39:06.516Z,5
2019-02-04T06:40:06.470Z,5
2019-02-04T06:41:07.062Z,5
2019-02-04T06:42:06.431Z,5
2019-02-04T06:43:06.427Z,5
2019-02-04T06:44:06.377Z,5
2019-02-04T06:45:06.371Z,10
2019-02-04T06:46:06.349Z,10
2019-02-04T06:47:06.316Z,10
2019-02-04T06:48:06.549Z,10
2019-02-04T06:49:16.799Z,10
2019-02-04T06:50:06.254Z,15
2019-02-04T06:51:06.229Z,15
2019-02-04T06:52:05.729Z,15
2019-02-04T06:53:06.189Z,15
2019-02-04T06:54:06.176Z,15
2019-02-04T06:55:06.165Z,20
2019-02-04T06:56:06.360Z,20
2019-02-04T06:57:06.336Z,20
2019-02-04T06:58:05.850Z,20
2019-02-04T06:59:06.080Z,25
2019-02-04T07:00:06.040Z,25
2019-02-04T07:01:05.778Z,25
2019-02-04T07:02:07.395Z,25
2019-02-04T07:03:05.748Z,25
2019-02-04T07:04:06.637Z,30
2019-02-04T07:05:05.932Z,30
2019-02-04T07:06:05.911Z,30
2019-02-04T07:07:05.663Z,30
2019-02-04T07:08:05.625Z,35
2019-02-04T07:09:05.864Z,35
2019-02-04T07:10:05.989Z,40
2019-02-04T07:11:05.805Z,40
2019-02-04T07:12:06.636Z,45
2019-02-04T07:13:05.787Z,45
2019-02-04T07:14:05.744Z,45
2019-02-04T07:15:05.738Z,50
2019-02-04T07:16:05.712Z,50
2019-02-04T07:17:05.669Z,55
2019-02-04T07:18:11.291Z,55
2019-02-04T07:19:05.940Z,55
2019-02-04T07:20:06.300Z,55
2019-02-04T07:21:05.344Z,55
2019-02-04T07:22:05.582Z,55
2019-02-04T07:23:05.566Z,55
2019-02-04T07:24:05.282Z,55
2019-02-04T07:25:05.496Z,55
2019-02-04T07:26:05.499Z,55
2019-02-04T07:27:05.940Z,55
2019-02-04T07:28:05.401Z,60
2019-02-04T07:29:05.248Z,60
2019-02-04T07:30:05.392Z,60
2019-02-04T07:31:05.487Z,60
2019-02-04T07:32:05.371Z,60
2019-02-04T07:33:05.402Z,60
2019-02-04T07:34:05.307Z,60
2019-02-04T07:35:06.151Z,60
2019-02-04T07:36:08.185Z,65
2019-02-04T07:37:05.258Z,65
2019-02-04T07:38:05.251Z,65
2019-02-04T07:39:05.211Z,65
2019-02-04T07:40:05.196Z,65
2019-02-04T07:41:05.164Z,65
2019-02-04T07:42:05.343Z,70
2019-02-04T07:43:05.373Z,70
2019-02-04T07:44:05.098Z,70
2019-02-04T07:45:04.700Z,70
2019-02-04T07:46:04.809Z,70
2019-02-04T07:47:04.790Z,70
2019-02-04T07:48:04.899Z,75
2019-02-04T07:49:04.998Z,75
2019-02-04T07:50:05.108Z,75
2019-02-04T07:51:05.348Z,75
2019-02-04T07:52:04.928Z,75
2019-02-04T07:53:04.902Z,75
2019-02-04T07:54:04.896Z,75
2019-02-04T07:55:04.370Z,80
2019-02-04T07:56:04.851Z,80
2019-02-04T07:57:04.935Z,80
2019-02-04T07:58:07.508Z,80
2019-02-04T07:59:04.797Z,80
2019-02-04T08:00:04.750Z,80
2019-02-04T08:01:04.506Z,80
2019-02-04T08:02:04.714Z,85
2019-02-04T08:03:04.851Z,85
2019-02-04T08:04:04.937Z,85
2019-02-04T08:05:04.656Z,85
2019-02-04T08:06:05.188Z,85
2019-02-04T08:07:04.608Z,85
2019-02-04T08:08:04.375Z,85
2019-02-04T08:09:04.315Z,90
2019-02-04T08:10:04.562Z,90
2019-02-04T08:11:04.275Z,90
2019-02-04T08:12:04.515Z,90
2019-02-04T08:13:10.954Z,90
2019-02-04T08:14:04.934Z,90
2019-02-04T08:15:04.444Z,90
2019-02-04T08:16:04.427Z,90
2019-02-04T08:17:04.531Z,90
2019-02-04T08:18:04.385Z,95
2019-02-04T08:19:03.596Z,95
2019-02-04T08:20:04.356Z,95
2019-02-04T08:21:04.572Z,95
2019-02-04T08:22:04.821Z,95
2019-02-04T08:23:04.308Z,95
2019-02-04T08:24:04.263Z,95
2019-02-04T08:25:04.242Z,95
2019-02-04T08:26:04.208Z,95
2019-02-04T08:27:04.201Z,95
2019-02-04T08:28:04.194Z,100
2019-02-04T08:29:04.370Z,100
2019-02-04T08:30:04.411Z,100
2019-02-04T08:31:03.860Z,100
2019-02-04T08:32:03.828Z,100
2019-02-04T08:33:04.072Z,100
2019-02-04T08:34:04.074Z,100
2019-02-04T08:35:04.079Z,100
2019-02-04T08:36:04.043Z,100
2019-02-04T08:37:04.914Z,100
2019-02-04T08:38:04.120Z,105
2019-02-04T08:39:03.962Z,105
2019-02-04T08:40:03.679Z,105
2019-02-04T08:41:03.906Z,105
2019-02-04T08:42:03.656Z,105
2019-02-04T08:43:03.622Z,105
2019-02-04T08:44:04.089Z,105
2019-02-04T08:45:04.527Z,105
2019-02-04T08:46:03.823Z,105
2019-02-04T08:47:03.800Z,105
2019-02-04T08:48:03.605Z,110
2019-02-04T08:49:03.759Z,110
2019-02-04T08:50:08.967Z,110
2019-02-04T08:51:03.468Z,110
2019-02-04T08:52:04.280Z,110
2019-02-04T08:53:03.176Z,110
2019-02-04T08:54:03.644Z,110
2019-02-04T08:55:03.609Z,110
2019-02-04T08:56:03.388Z,110
2019-02-04T08:57:03.697Z,115
2019-02-04T08:58:03.582Z,115
2019-02-04T08:59:03.728Z,115
2019-02-04T09:00:03.382Z,115
2019-02-04T09:01:03.486Z,115
2019-02-04T09:02:03.473Z,115
2019-02-04T09:03:03.457Z,115
2019-02-04T09:04:03.498Z,115
2019-02-04T09:05:03.493Z,115
2019-02-04T09:06:03.394Z,120
2019-02-04T09:07:04.222Z,120
2019-02-04T09:08:03.383Z,120
2019-02-04T09:09:03.326Z,120
2019-02-04T09:10:03.060Z,120
2019-02-04T09:11:03.043Z,125
2019-02-04T09:12:02.820Z,125
2019-02-04T09:13:03.042Z,125
2019-02-04T09:14:03.111Z,125
2019-02-04T09:15:03.838Z,125
2019-02-04T09:16:03.178Z,125
2019-02-04T09:17:02.912Z,125
2019-02-04T09:18:02.908Z,125
2019-02-04T09:19:03.114Z,125
2019-02-04T09:20:14.559Z,125
2019-02-04T09:21:02.841Z,130
2019-02-04T09:22:03.533Z,130
2019-02-04T09:23:05.961Z,130
2019-02-04T09:24:02.813Z,130
2019-02-04T09:25:03.007Z,130
2019-02-04T09:26:03.000Z,130
2019-02-04T09:27:02.741Z,130
2019-02-04T09:28:02.716Z,130
2019-02-04T09:29:02.915Z,135
2019-02-04T09:30:03.747Z,135
2019-02-04T09:31:02.655Z,135
2019-02-04T09:32:02.973Z,135
2019-02-04T09:33:02.646Z,135
2019-02-04T09:34:02.849Z,135
2019-02-04T09:35:02.937Z,135
2019-02-04T09:36:02.789Z,135
2019-02-04T09:37:02.851Z,135
2019-02-04T09:38:03.052Z,135
2019-02-04T09:39:02.732Z,135
2019-02-04T09:40:02.710Z,135
2019-02-04T09:41:02.442Z,135
2019-02-04T09:42:02.413Z,140
2019-02-04T09:43:02.436Z,140
2019-02-04T09:44:02.629Z,140
2019-02-04T09:45:03.602Z,135
2019-02-04T09:46:02.610Z,140
2019-02-04T09:47:02.565Z,140
2019-02-04T09:48:02.305Z,140
2019-02-04T09:49:02.546Z,140
2019-02-04T09:50:02.552Z,140
2019-02-04T09:51:02.488Z,140
2019-02-04T09:52:02.482Z,140
2019-02-04T09:53:03.443Z,140
2019-02-04T09:54:02.459Z,140
2019-02-04T09:55:02.434Z,140
2019-02-04T09:56:04.118Z,140
2019-02-04T09:57:02.357Z,140
2019-02-04T09:58:02.379Z,140
2019-02-04T09:59:02.318Z,140
2019-02-04T10:00:02.990Z,140
2019-02-04T10:01:04.299Z,140
2019-02-04T10:02:02.264Z,140
2019-02-04T10:03:02.256Z,140
2019-02-04T10:04:01.966Z,140
2019-02-04T10:05:02.200Z,140
2019-02-04T10:06:01.932Z,140
2019-02-04T10:07:05.086Z,140
2019-02-04T10:08:02.639Z,140
2019-02-04T10:09:02.411Z,140
2019-02-04T10:10:03.917Z,140
2019-02-04T10:11:01.840Z,140
2019-02-04T10:12:02.062Z,140
2019-02-04T10:13:02.018Z,140
2019-02-04T10:14:02.042Z,140
2019-02-04T10:15:02.118Z,140
2019-02-04T10:16:02.566Z,140
2019-02-04T10:17:02.345Z,140
2019-02-04T10:18:01.980Z,140
2019-02-04T10:19:02.078Z,140
2019-02-04T10:20:02.140Z,140
2019-02-04T10:21:02.003Z,140
2019-02-04T10:22:03.736Z,140
2019-02-04T10:23:01.935Z,145
2019-02-04T10:24:02.400Z,145
2019-02-04T10:25:02.396Z,150
2019-02-04T10:26:02.039Z,150
2019-02-04T10:27:01.713Z,150
2019-02-04T10:28:01.656Z,150
2019-02-04T10:29:01.948Z,155
2019-02-04T10:30:01.533Z,155
2019-02-04T10:31:01.842Z,155
2019-02-04T10:32:02.120Z,155
2019-02-04T10:33:01.508Z,160
2019-02-04T10:34:01.343Z,165
2019-02-04T10:35:01.813Z,165
2019-02-04T10:36:01.758Z,170
2019-02-04T10:37:01.794Z,170
2019-02-04T10:38:01.432Z,175
2019-02-04T10:39:01.383Z,175
2019-02-04T10:40:02.683Z,180
2019-02-04T10:41:01.617Z,180
2019-02-04T10:42:01.641Z,180
2019-02-04T10:43:01.813Z,180
2019-02-04T10:44:01.453Z,180
2019-02-04T10:45:01.740Z,180
2019-02-04T10:46:04.570Z,180
2019-02-04T10:47:01.722Z,180
2019-02-04T10:48:01.960Z,180
2019-02-04T10:49:01.523Z,180
2019-02-04T10:50:00.920Z,180
2019-02-04T10:51:01.261Z,180
2019-02-04T10:52:01.534Z,180
2019-02-04T10:53:01.429Z,180
2019-02-04T10:54:01.498Z,180
2019-02-04T10:55:01.724Z,180
2019-02-04T10:56:01.688Z,175
2019-02-04T10:57:01.062Z,175
2019-02-04T10:58:01.482Z,175
2019-02-04T10:59:01.322Z,175
2019-02-04T11:00:01.123Z,175
2019-02-04T11:01:00.785Z,175
2019-02-04T11:02:01.403Z,175
2019-02-04T11:03:02.095Z,175
2019-02-04T11:04:01.327Z,175
2019-02-04T11:05:01.065Z,175
2019-02-04T11:06:04.409Z,175
2019-02-04T11:07:01.195Z,175
2019-02-04T11:08:01.221Z,175
2019-02-04T11:09:00.822Z,175
2019-02-04T11:10:00.820Z,175
2019-02-04T11:11:01.128Z,175
2019-02-04T11:12:01.118Z,175
2019-02-04T11:13:01.177Z,175
2019-02-04T11:14:01.040Z,175
2019-02-04T11:15:01.044Z,175
2019-02-04T11:16:00.951Z,175
2019-02-04T11:17:00.925Z,175
2019-02-04T11:18:00.969Z,180
2019-02-04T11:19:01.406Z,180
2019-02-04T11:20:00.882Z,180
2019-02-04T11:21:07.965Z,180
2019-02-04T11:22:00.649Z,180
2019-02-04T11:23:00.895Z,180
2019-02-04T11:24:00.601Z,180
2019-02-04T11:25:00.890Z,180
2019-02-04T11:26:01.045Z,180
2019-02-04T11:27:01.418Z,180
2019-02-04T11:28:00.958Z,180
2019-02-04T11:29:00.720Z,175
2019-02-04T11:30:00.732Z,175
2019-02-04T11:31:00.204Z,175
2019-02-04T11:32:00.868Z,175
2019-02-04T11:33:00.669Z,175
2019-02-04T11:34:00.808Z,175
2019-02-04T11:35:01.173Z,175
2019-02-04T11:36:00.679Z,175
2019-02-04T11:37:00.567Z,175
2019-02-04T11:38:00.685Z,175
2019-02-04T11:39:00.544Z,175
2019-02-04T11:40:00.622Z,175
2019-02-04T11:41:00.778Z,175
2019-02-04T11:42:00.662Z,175
2019-02-04T11:43:00.610Z,175
2019-02-04T11:44:00.572Z,175
2019-02-04T11:45:00.575Z,175
2019-02-04T11:46:02.378Z,175
2019-02-04T11:47:00.371Z,175
2019-02-04T11:48:00.418Z,175
2019-02-04T11:49:00.265Z,175
2019-02-04T11:50:00.928Z,175
2019-02-04T11:51:11.719Z,175
2019-02-04T11:52:00.214Z,175
2019-02-04T11:53:00.219Z,175
2019-02-04T11:54:00.164Z,175
2019-02-04T11:55:00.199Z,175
2019-02-04T11:56:00.136Z,175
2019-02-04T11:57:00.122Z,175
2019-02-04T11:58:00.625Z,175
2019-02-04T11:58:59.585Z,175
2019-02-04T12:00:00.092Z,175
2019-02-04T12:01:00.044Z,175
2019-02-04T12:01:59.795Z,175
2019-02-04T12:03:00.021Z,175
2019-02-04T12:04:00.000Z,170
2019-02-04T12:05:00.191Z,170
2019-02-04T12:06:00.278Z,170
2019-02-04T12:06:59.936Z,170
2019-02-04T12:07:59.942Z,170
2019-02-04T12:08:59.919Z,170
2019-02-04T12:09:59.896Z,165
2019-02-04T12:10:59.868Z,165
2019-02-04T12:12:02.933Z,165
2019-02-04T12:13:00.320Z,165
2019-02-04T12:13:59.929Z,165
2019-02-04T12:14:59.563Z,165
2019-02-04T12:15:59.549Z,140
2019-02-04T12:17:01.613Z,140
2019-02-04T12:17:59.873Z,135
2019-02-04T12:18:59.758Z,140
2019-02-04T12:19:59.214Z,165
2019-02-04T12:21:00.351Z,160
2019-02-04T12:22:02.678Z,140
2019-02-04T12:22:59.717Z,165
2019-02-04T12:23:59.711Z,160
2019-02-04T12:24:59.644Z,165
2019-02-04T12:25:59.618Z,130
2019-02-04T12:26:59.361Z,125
2019-02-04T12:27:59.576Z,135
2019-02-04T12:29:02.699Z,155
2019-02-04T12:29:59.546Z,175
2019-02-04T12:30:59.541Z,150
2019-02-04T12:31:59.014Z,140
2019-02-04T12:32:59.481Z,150
2019-02-04T12:33:59.469Z,190
2019-02-04T12:34:59.472Z,165
2019-02-04T12:36:01.960Z,140
2019-02-04T12:36:59.827Z,140
2019-02-04T12:37:59.438Z,150
2019-02-04T12:38:59.386Z,160
2019-02-04T12:39:59.112Z,190
2019-02-04T12:40:59.355Z,175
2019-02-04T12:42:00.329Z,190
2019-02-04T12:42:59.375Z,160
2019-02-04T12:43:59.192Z,160
2019-02-04T12:44:59.572Z,180
2019-02-04T12:45:59.256Z,205
2019-02-04T12:46:59.245Z,185
2019-02-04T12:48:00.771Z,165
2019-02-04T12:48:59.218Z,165
2019-02-04T12:49:58.691Z,155
2019-02-04T12:50:58.734Z,145
2019-02-04T12:51:59.680Z,145
2019-02-04T12:52:59.140Z,165
2019-02-04T12:53:58.981Z,180
2019-02-04T12:54:59.109Z,165
2019-02-04T12:55:59.068Z,145
2019-02-04T12:56:59.138Z,150
2019-02-04T12:57:58.794Z,145
2019-02-04T12:59:05.354Z,145
2019-02-04T12:59:59.956Z,165
2019-02-04T13:00:58.984Z,160
2019-02-04T13:01:58.990Z,150
2019-02-04T13:02:58.982Z,145
2019-02-04T13:03:58.439Z,145
2019-02-04T13:04:58.672Z,140
2019-02-04T13:05:58.912Z,140
2019-02-04T13:06:58.883Z,135
2019-02-04T13:07:59.491Z,135
2019-02-04T13:08:58.861Z,135
2019-02-04T13:09:58.829Z,135
2019-02-04T13:10:58.801Z,135
2019-02-04T13:11:58.788Z,135
2019-02-04T13:12:58.519Z,135
2019-02-04T13:13:58.761Z,130
2019-02-04T13:14:59.011Z,130
2019-02-04T13:15:59.043Z,135
2019-02-04T13:16:58.694Z,135
2019-02-04T13:17:58.672Z,135
2019-02-04T13:18:58.675Z,135
2019-02-04T13:19:58.415Z,135
2019-02-04T13:20:58.630Z,135
2019-02-04T13:21:58.604Z,140
2019-02-04T13:22:58.933Z,135
2019-02-04T13:23:58.736Z,135
2019-02-04T13:24:58.571Z,140
2019-02-04T13:25:58.047Z,130
2019-02-04T13:26:58.524Z,125
2019-02-04T13:27:58.645Z,120
2019-02-04T13:28:58.248Z,115
2019-02-04T13:29:58.458Z,120
2019-02-04T13:30:59.115Z,115
2019-02-04T13:31:58.739Z,120
2019-02-04T13:32:58.409Z,125
2019-02-04T13:33:58.390Z,125
2019-02-04T13:34:58.381Z,120
2019-02-04T13:35:58.104Z,120
2019-02-04T13:36:58.344Z,120
2019-02-04T13:37:58.335Z,120
2019-02-04T13:38:59.043Z,125
2019-02-04T13:39:58.032Z,125
2019-02-04T13:41:11.389Z,125
2019-02-04T13:41:58.014Z,125
2019-02-04T13:42:58.003Z,120
2019-02-04T13:43:57.969Z,120
2019-02-04T13:44:58.199Z,120
2019-02-04T13:45:57.934Z,120
2019-02-04T13:46:58.766Z,120
2019-02-04T13:47:58.144Z,125
2019-02-04T13:48:58.281Z,125
2019-02-04T13:49:58.217Z,125
2019-02-04T13:50:58.078Z,135
2019-02-04T13:52:07.199Z,140
2019-02-04T13:52:58.063Z,160
2019-02-04T13:53:59.777Z,200
2019-02-04T13:54:58.941Z,180
2019-02-04T13:55:58.035Z,165
2019-02-04T13:56:57.988Z,195
2019-02-04T13:57:57.711Z,210
2019-02-04T13:58:57.938Z,220
2019-02-04T13:59:57.671Z,205
2019-02-04T14:00:57.920Z,180
2019-02-04T14:01:57.931Z,175
2019-02-04T14:03:08.376Z,145
2019-02-04T14:03:58.123Z,155
2019-02-04T14:04:57.715Z,150
2019-02-04T14:05:57.818Z,135
2019-02-04T14:06:57.802Z,155
2019-02-04T14:07:57.282Z,155
2019-02-04T14:08:57.771Z,155
2019-02-04T14:09:59.125Z,165
2019-02-04T14:10:57.760Z,175
2019-02-04T14:11:57.713Z,170
2019-02-04T14:12:57.694Z,160
2019-02-04T14:13:57.503Z,155
2019-02-04T14:14:57.670Z,175
2019-02-04T14:15:57.640Z,165
2019-02-04T14:16:57.622Z,165